createdAt,value
2019-02-14T00:02:09.056Z,88.80
2019-02-14T00:04:38.879Z,88.87
2019-02-14T00:07:08.731Z,88.70
2019-02-14T00:09:38.367Z,88.58
2019-02-14T00:12:09.059Z,88.44
2019-02-14T00:14:38.683Z,88.26
2019-02-14T00:17:08.869Z,88.07
2019-02-14T00:19:38.527Z,88.04
2019-02-14T00:22:11.052Z,87.99
2019-02-14T00:24:41.599Z,88.04
2019-02-14T00:27:11.400Z,87.89
2019-02-14T00:29:41.964Z,87.93
2019-02-14T00:32:11.584Z,87.85
2019-02-14T00:34:41.913Z,87.88
2019-02-14T00:37:12.574Z,87.72
2019-02-14T00:39:43.758Z,87.63
2019-02-14T00:42:13.445Z,87.54
2019-02-14T00:44:43.397Z,87.40
2019-02-14T00:47:13.092Z,87.31
2019-02-14T00:49:42.758Z,87.34
2019-02-14T00:52:12.897Z,87.32
2019-02-14T00:54:42.698Z,87.31
2019-02-14T00:57:12.635Z,87.34
2019-02-14T00:59:42.442Z,87.41
2019-02-14T01:02:12.330Z,87.53
2019-02-14T01:04:42.611Z,87.57
2019-02-14T01:07:12.425Z,87.57
2019-02-14T01:09:42.051Z,87.65
2019-02-14T01:12:12.248Z,87.65
2019-02-14T01:14:42.239Z,87.81
2019-02-14T01:17:11.858Z,87.78
2019-02-14T01:19:41.838Z,87.77
2019-02-14T01:22:11.576Z,87.80
2019-02-14T01:24:41.542Z,87.78
2019-02-14T01:27:12.585Z,87.90
2019-02-14T01:29:45.330Z,87.79
2019-02-14T01:32:14.968Z,87.76
2019-02-14T01:34:44.746Z,87.70
2019-02-14T01:37:14.531Z,87.71
2019-02-14T01:39:44.274Z,87.64
2019-02-14T01:42:13.984Z,87.71
2019-02-14T01:44:43.613Z,87.68
2019-02-14T01:47:15.250Z,87.72
2019-02-14T01:49:45.340Z,87.67
2019-02-14T01:52:15.095Z,87.52
2019-02-14T01:54:45.102Z,87.41
2019-02-14T01:57:14.954Z,87.15
2019-02-14T01:59:44.734Z,86.99
2019-02-14T02:02:15.327Z,86.91
2019-02-14T02:04:45.840Z,86.79
2019-02-14T02:07:15.464Z,86.63
2019-02-14T02:09:45.200Z,86.50
2019-02-14T02:12:15.966Z,86.44
2019-02-14T02:14:46.428Z,86.25
2019-02-14T02:17:17.820Z,86.17
2019-02-14T02:19:48.569Z,86.03
2019-02-14T02:22:18.381Z,85.87
2019-02-14T02:24:48.631Z,85.81
2019-02-14T02:27:18.757Z,85.87
2019-02-14T02:29:48.501Z,85.68
2019-02-14T02:32:19.222Z,85.41
2019-02-14T02:34:50.465Z,85.37
2019-02-14T02:37:21.199Z,85.41
2019-02-14T02:39:50.941Z,85.40
2019-02-14T02:42:20.627Z,85.36
2019-02-14T02:44:50.609Z,85.15
2019-02-14T02:47:20.230Z,85.16
2019-02-14T02:49:49.887Z,85.33
2019-02-14T02:52:19.678Z,85.24
2019-02-14T02:54:49.317Z,85.15
2019-02-14T02:57:18.963Z,85.27
2019-02-14T02:59:48.584Z,85.17
2019-02-14T03:02:19.682Z,84.95
2019-02-14T03:04:49.500Z,84.89
2019-02-14T03:07:19.186Z,84.74
2019-02-14T03:09:49.408Z,84.72
2019-02-14T03:12:19.187Z,84.76
2019-02-14T03:14:49.987Z,84.74
2019-02-14T03:17:19.740Z,84.76
2019-02-14T03:19:49.430Z,84.68
2019-02-14T03:22:19.337Z,84.64
2019-02-14T03:24:49.692Z,84.65
2019-02-14T03:27:19.625Z,84.64
2019-02-14T03:29:49.371Z,84.74
2019-02-14T03:32:19.122Z,84.74
2019-02-14T03:34:48.811Z,84.94
2019-02-14T03:37:18.613Z,84.87
2019-02-14T03:39:48.346Z,84.84
2019-02-14T03:42:18.693Z,84.79
2019-02-14T03:44:48.582Z,84.89
2019-02-14T03:47:18.313Z,84.76
2019-02-14T03:49:49.504Z,84.71
2019-02-14T03:52:19.294Z,84.81
2019-02-14T03:54:49.265Z,84.79
2019-02-14T03:57:18.969Z,84.79
2019-02-14T03:59:48.623Z,84.79
2019-02-14T04:02:18.216Z,84.72
2019-02-14T04:04:48.363Z,84.75
2019-02-14T04:07:18.573Z,84.91
2019-02-14T04:09:48.873Z,84.96
2019-02-14T04:12:19.299Z,85.02
2019-02-14T04:14:49.040Z,85.00
2019-02-14T04:17:18.661Z,85.18
2019-02-14T04:19:48.353Z,85.21
2019-02-14T04:22:18.347Z,85.20
2019-02-14T04:24:48.091Z,85.31
2019-02-14T04:27:18.431Z,85.34
2019-02-14T04:29:48.065Z,85.38
2019-02-14T04:32:18.015Z,85.36
2019-02-14T04:34:47.666Z,85.47
2019-02-14T04:37:17.422Z,85.55
2019-02-14T04:39:47.042Z,85.57
2019-02-14T04:42:16.905Z,85.64
2019-02-14T04:44:46.669Z,85.58
2019-02-14T04:47:16.606Z,85.55
2019-02-14T04:49:46.536Z,85.46
2019-02-14T04:52:18.273Z,85.27
2019-02-14T04:54:48.771Z,85.22
2019-02-14T04:57:18.462Z,85.31
2019-02-14T04:59:48.451Z,85.40
2019-02-14T05:02:18.341Z,85.40
2019-02-14T05:04:48.083Z,85.40
2019-02-14T05:07:17.811Z,85.58
2019-02-14T05:09:47.526Z,85.87
2019-02-14T05:12:17.974Z,86.15
2019-02-14T05:14:47.618Z,86.28
2019-02-14T05:17:17.363Z,86.55
2019-02-14T05:19:47.024Z,86.71
2019-02-14T05:22:16.992Z,86.66
2019-02-14T05:24:48.282Z,86.89
2019-02-14T05:27:18.382Z,86.83
2019-02-14T05:29:48.394Z,86.84
2019-02-14T05:32:18.371Z,86.95
2019-02-14T05:34:48.923Z,87.11
2019-02-14T05:37:19.224Z,87.11
2019-02-14T05:39:48.905Z,86.95
2019-02-14T05:42:18.710Z,86.83
2019-02-14T05:44:48.907Z,86.96
2019-02-14T05:47:19.438Z,87.05
2019-02-14T05:49:49.186Z,87.36
2019-02-14T05:52:19.106Z,87.32
2019-02-14T05:54:48.737Z,86.98
2019-02-14T05:57:19.194Z,86.68
2019-02-14T05:59:48.932Z,86.58
2019-02-14T06:02:19.541Z,86.56
2019-02-14T06:04:49.369Z,86.36
2019-02-14T06:07:20.479Z,86.33
2019-02-14T06:09:51.184Z,86.10
2019-02-14T06:12:21.162Z,85.88
2019-02-14T06:14:51.572Z,85.94
2019-02-14T06:17:22.273Z,85.82
2019-02-14T06:19:51.939Z,85.40
2019-02-14T06:22:21.628Z,85.27
2019-02-14T06:24:51.272Z,85.12
2019-02-14T06:27:21.268Z,84.90
2019-02-14T06:29:51.565Z,84.83
2019-02-14T06:32:21.035Z,84.67
2019-02-14T06:34:50.885Z,84.42
2019-02-14T06:37:20.522Z,84.06
2019-02-14T06:39:51.589Z,84.08
2019-02-14T06:42:22.042Z,84.22
2019-02-14T06:44:52.198Z,84.26
2019-02-14T06:47:22.889Z,84.03
2019-02-14T06:49:54.032Z,84.36
2019-02-14T06:52:23.668Z,84.92
2019-02-14T06:54:53.408Z,84.58
2019-02-14T06:57:23.112Z,84.15
2019-02-14T06:59:54.637Z,84.01
2019-02-14T07:02:24.456Z,83.94
2019-02-14T07:04:54.110Z,83.54
2019-02-14T07:07:24.117Z,83.33
2019-02-14T07:09:54.410Z,83.42
2019-02-14T07:12:24.967Z,83.11
2019-02-14T07:14:54.755Z,82.95
2019-02-14T07:17:25.452Z,82.53
2019-02-14T07:19:55.229Z,82.56
2019-02-14T07:22:25.525Z,82.80
2019-02-14T07:24:55.552Z,82.60
2019-02-14T07:27:25.392Z,82.46
2019-02-14T07:29:55.799Z,82.41
2019-02-14T07:32:26.286Z,82.22
2019-02-14T07:34:57.302Z,82.19
2019-02-14T07:37:27.206Z,82.12
2019-02-14T07:39:56.890Z,81.65
2019-02-14T07:42:26.579Z,81.75
2019-02-14T07:44:56.204Z,81.38
2019-02-14T07:47:26.167Z,81.46
2019-02-14T07:49:57.472Z,81.51
2019-02-14T07:52:27.235Z,81.61
2019-02-14T07:54:57.007Z,81.31
2019-02-14T07:57:26.696Z,80.93
2019-02-14T07:59:56.301Z,80.90
2019-02-14T08:02:26.697Z,80.87
2019-02-14T08:04:56.363Z,81.15
2019-02-14T08:07:26.259Z,81.03
2019-02-14T08:09:55.867Z,80.89
2019-02-14T08:12:25.705Z,80.86
2019-02-14T08:14:55.323Z,81.01
2019-02-14T08:17:25.850Z,81.34
2019-02-14T08:19:55.871Z,81.65
2019-02-14T08:22:27.244Z,81.79
2019-02-14T08:24:57.016Z,81.24
2019-02-14T08:27:27.010Z,81.22
2019-02-14T08:29:57.126Z,81.09
2019-02-14T08:32:26.771Z,81.28
2019-02-14T08:34:56.465Z,81.23
2019-02-14T08:37:26.087Z,81.39
2019-02-14T08:39:55.776Z,81.50
2019-02-14T08:42:25.917Z,81.52
2019-02-14T08:44:56.104Z,81.70
2019-02-14T08:47:26.265Z,81.98
2019-02-14T08:49:56.027Z,81.90
2019-02-14T08:52:25.961Z,81.99
2019-02-14T08:54:56.132Z,81.95
2019-02-14T08:57:26.948Z,81.87
2019-02-14T08:59:56.863Z,82.01
2019-02-14T09:02:26.645Z,82.23
2019-02-14T09:04:57.233Z,82.32
2019-02-14T09:07:27.177Z,82.54
2019-02-14T09:09:56.754Z,82.55
2019-02-14T09:12:26.594Z,82.43
2019-02-14T09:14:56.305Z,81.99
2019-02-14T09:17:26.287Z,81.96
2019-02-14T09:19:56.035Z,82.26
2019-02-14T09:22:25.667Z,82.01
2019-02-14T09:24:55.287Z,82.31
2019-02-14T09:27:24.987Z,82.51
2019-02-14T09:29:54.602Z,82.55
2019-02-14T09:32:25.952Z,82.82
2019-02-14T09:34:55.732Z,82.91
2019-02-14T09:37:26.151Z,83.22
2019-02-14T09:39:55.796Z,83.47
2019-02-14T09:42:26.151Z,83.47
2019-02-14T09:44:56.430Z,83.74
2019-02-14T09:47:27.115Z,83.67
2019-02-14T09:49:57.009Z,83.64
2019-02-14T09:52:27.741Z,83.56
2019-02-14T09:54:57.361Z,83.68
2019-02-14T09:57:27.058Z,83.58
2019-02-14T09:59:56.744Z,83.57
2019-02-14T10:02:26.414Z,83.52
2019-02-14T10:04:56.337Z,83.63
2019-02-14T10:07:26.864Z,83.65
2019-02-14T10:09:57.616Z,83.81
2019-02-14T10:12:27.579Z,83.94
2019-02-14T10:14:57.287Z,83.99
2019-02-14T10:17:27.210Z,83.73
2019-02-14T10:19:57.571Z,84.03
2019-02-14T10:22:27.520Z,83.96
2019-02-14T10:24:58.019Z,84.02
2019-02-14T10:27:33.514Z,84.02
2019-02-14T10:30:06.329Z,84.25
2019-02-14T10:32:36.844Z,84.20
2019-02-14T10:35:15.635Z,84.14
2019-02-14T10:37:47.262Z,84.02
2019-02-14T10:40:18.750Z,84.39
2019-02-14T10:42:51.471Z,84.06
2019-02-14T10:45:26.025Z,84.07
2019-02-14T10:47:57.476Z,84.16
2019-02-14T10:50:28.430Z,84.25
2019-02-14T10:53:00.143Z,84.42
2019-02-14T10:55:29.892Z,84.86
2019-02-14T10:57:59.593Z,85.05
2019-02-14T11:00:30.467Z,85.31
2019-02-14T11:03:00.342Z,85.63
2019-02-14T11:05:30.553Z,86.26
2019-02-14T11:08:00.388Z,85.86
2019-02-14T11:10:30.810Z,85.75
2019-02-14T11:13:02.976Z,86.00
2019-02-14T11:15:33.744Z,86.05
2019-02-14T11:18:03.654Z,86.52
2019-02-14T11:20:33.971Z,86.54
2019-02-14T11:23:03.798Z,86.41
2019-02-14T11:25:35.753Z,86.34
2019-02-14T11:28:06.213Z,86.43
2019-02-14T11:30:36.262Z,86.77
2019-02-14T11:33:06.591Z,86.90
2019-02-14T11:35:36.539Z,86.95
2019-02-14T11:38:06.315Z,87.07
2019-02-14T11:40:36.536Z,87.40
2019-02-14T11:43:06.245Z,87.52
2019-02-14T11:45:35.958Z,87.76
2019-02-14T11:48:09.051Z,87.87
2019-02-14T11:50:38.808Z,87.61
2019-02-14T11:53:14.205Z,87.80
2019-02-14T11:55:43.691Z,87.93
2019-02-14T11:58:13.322Z,87.89
2019-02-14T12:00:43.749Z,87.33
2019-02-14T12:03:13.384Z,87.15
2019-02-14T12:05:43.488Z,87.22
2019-02-14T12:08:13.145Z,87.40
2019-02-14T12:10:43.111Z,87.56
2019-02-14T12:13:13.212Z,87.54
2019-02-14T12:15:43.591Z,87.53
2019-02-14T12:18:13.692Z,87.16
2019-02-14T12:20:45.322Z,86.86
2019-02-14T12:23:15.023Z,86.32
2019-02-14T12:25:45.257Z,85.67
2019-02-14T12:28:14.968Z,85.52
2019-02-14T12:30:45.075Z,85.75
2019-02-14T12:33:15.094Z,85.58
2019-02-14T12:35:46.294Z,85.31
2019-02-14T12:38:17.392Z,85.30
2019-02-14T12:40:47.391Z,86.24
2019-02-14T12:43:17.213Z,86.20
2019-02-14T12:45:47.203Z,85.93
2019-02-14T12:48:17.175Z,86.31
2019-02-14T12:50:48.881Z,86.63
2019-02-14T12:53:19.430Z,86.96
2019-02-14T12:55:49.138Z,87.23
2019-02-14T12:58:21.677Z,87.33
2019-02-14T13:00:52.373Z,87.66
2019-02-14T13:03:23.060Z,87.84
2019-02-14T13:05:56.383Z,87.88
2019-02-14T13:08:29.996Z,87.87
2019-02-14T13:11:01.484Z,87.98
2019-02-14T13:13:33.514Z,87.98
2019-02-14T13:16:05.283Z,87.78
2019-02-14T13:18:37.330Z,87.81
2019-02-14T13:21:08.952Z,88.02
2019-02-14T13:23:40.329Z,87.91
2019-02-14T13:26:12.922Z,88.16
2019-02-14T13:28:44.120Z,88.31
2019-02-14T13:31:13.861Z,88.02
2019-02-14T13:33:44.474Z,88.08
2019-02-14T13:36:16.436Z,88.12
2019-02-14T13:38:48.807Z,88.55
2019-02-14T13:41:20.214Z,88.62
2019-02-14T13:43:54.067Z,88.71
2019-02-14T13:46:28.107Z,88.69
2019-02-14T13:49:02.397Z,88.55
2019-02-14T13:51:36.087Z,88.35
2019-02-14T13:54:07.181Z,88.27
2019-02-14T13:56:39.830Z,88.05
2019-02-14T13:59:12.120Z,87.93
2019-02-14T14:01:45.208Z,87.99
2019-02-14T14:04:18.007Z,88.38
2019-02-14T14:06:50.940Z,88.39
2019-02-14T14:09:23.158Z,88.43
2019-02-14T14:12:01.040Z,88.42
2019-02-14T14:14:31.745Z,88.60
2019-02-14T14:17:02.818Z,88.71
2019-02-14T14:19:36.441Z,88.73
2019-02-14T14:22:09.274Z,89.01
2019-02-14T14:24:39.849Z,89.21
2019-02-14T14:27:09.475Z,89.30
2019-02-14T14:29:39.953Z,89.43
2019-02-14T14:32:11.344Z,89.60
2019-02-14T14:34:40.983Z,89.50
2019-02-14T14:37:11.049Z,89.50
2019-02-14T14:39:47.554Z,89.40
2019-02-14T14:42:14.635Z,89.41
2019-02-14T14:44:45.811Z,89.47
2019-02-14T14:47:33.920Z,89.53
2019-02-14T14:50:04.519Z,89.64
2019-02-14T14:52:34.222Z,89.24
2019-02-14T14:55:04.897Z,88.98
2019-02-14T14:57:35.075Z,89.07
2019-02-14T15:00:06.719Z,88.87
2019-02-14T15:02:36.521Z,88.88
2019-02-14T15:05:07.135Z,89.05
2019-02-14T15:07:36.897Z,88.89
2019-02-14T15:10:07.829Z,88.49
2019-02-14T15:12:37.498Z,88.61
2019-02-14T15:15:09.836Z,88.69
2019-02-14T15:17:39.581Z,88.62
2019-02-14T15:20:11.797Z,88.67
2019-02-14T15:22:41.434Z,88.72
2019-02-14T15:25:11.190Z,89.17
2019-02-14T15:27:40.880Z,89.07
2019-02-14T15:30:11.641Z,89.15
2019-02-14T15:32:41.387Z,89.47
2019-02-14T15:35:11.162Z,88.96
2019-02-14T15:37:42.486Z,88.57
2019-02-14T15:40:12.872Z,88.71
2019-02-14T15:42:42.684Z,88.82
2019-02-14T15:45:15.124Z,89.01
2019-02-14T15:47:45.370Z,89.13
2019-02-14T15:50:15.032Z,89.04
2019-02-14T15:52:44.658Z,89.17
2019-02-14T15:55:14.289Z,89.00
2019-02-14T15:57:44.764Z,89.04
2019-02-14T16:00:15.547Z,89.09
2019-02-14T16:02:45.465Z,89.23
2019-02-14T16:05:17.351Z,89.35
2019-02-14T16:07:49.551Z,89.38
2019-02-14T16:10:19.197Z,89.59
2019-02-14T16:12:48.945Z,89.62
2019-02-14T16:15:18.716Z,89.75
2019-02-14T16:17:49.976Z,89.94
2019-02-14T16:20:20.122Z,89.81
2019-02-14T16:22:50.065Z,89.83
2019-02-14T16:25:21.419Z,89.96
2019-02-14T16:27:51.181Z,90.10
2019-02-14T16:30:21.212Z,90.02
2019-02-14T16:32:51.127Z,90.03
2019-02-14T16:35:21.087Z,89.97
2019-02-14T16:37:50.835Z,90.28
2019-02-14T16:40:27.649Z,90.71
2019-02-14T16:42:54.539Z,90.80
2019-02-14T16:45:24.302Z,90.38
2019-02-14T16:47:53.947Z,90.38
2019-02-14T16:50:23.735Z,90.21
2019-02-14T16:52:53.383Z,90.24
2019-02-14T16:55:23.945Z,90.22
2019-02-14T16:57:53.640Z,90.12
2019-02-14T17:00:23.245Z,90.08
2019-02-14T17:02:52.926Z,89.97
2019-02-14T17:05:23.954Z,89.85
2019-02-14T17:07:56.017Z,89.84
2019-02-14T17:10:27.054Z,89.67
2019-02-14T17:12:56.801Z,89.58
2019-02-14T17:15:26.524Z,89.40
2019-02-14T17:17:57.186Z,89.50
2019-02-14T17:20:27.001Z,89.36
2019-02-14T17:22:56.690Z,89.25
2019-02-14T17:25:26.329Z,88.97
2019-02-14T17:27:57.327Z,89.00
2019-02-14T17:30:27.463Z,88.93
2019-02-14T17:32:57.392Z,88.65
2019-02-14T17:35:29.666Z,88.25
2019-02-14T17:40:56.686Z,88.18
2019-02-14T17:43:27.205Z,87.96
2019-02-14T17:45:57.846Z,87.85
2019-02-14T17:48:27.853Z,87.95
2019-02-14T17:50:57.486Z,87.94
2019-02-14T17:53:27.483Z,87.53
2019-02-14T17:55:57.509Z,87.50
2019-02-14T17:58:27.160Z,87.48
2019-02-14T18:00:56.791Z,87.32
2019-02-14T18:03:27.719Z,87.28
2019-02-14T18:05:57.369Z,87.24
2019-02-14T18:08:29.451Z,87.26
2019-02-14T18:10:59.196Z,87.31
2019-02-14T18:13:29.286Z,87.38
2019-02-14T18:15:58.942Z,87.17
2019-02-14T18:18:29.563Z,87.26
2019-02-14T18:21:00.255Z,87.05
2019-02-14T18:23:29.890Z,86.92
2019-02-14T18:25:59.627Z,87.02
2019-02-14T18:28:30.415Z,86.79
2019-02-14T18:31:00.560Z,86.91
2019-02-14T18:33:30.400Z,86.92
2019-02-14T18:36:00.041Z,86.94
2019-02-14T18:38:30.400Z,86.70
2019-02-14T18:41:04.105Z,86.61
2019-02-14T18:43:31.459Z,86.42
2019-02-14T18:46:01.172Z,86.49
2019-02-14T18:48:30.899Z,86.37
2019-02-14T18:51:01.122Z,86.15
2019-02-14T18:53:31.896Z,86.06
2019-02-14T18:56:01.682Z,86.22
2019-02-14T18:58:32.950Z,86.20
2019-02-14T19:01:02.696Z,86.37
2019-02-14T19:03:32.629Z,85.72
2019-02-14T19:06:03.676Z,85.37
2019-02-14T19:08:33.317Z,85.25
2019-02-14T19:11:03.395Z,85.41
2019-02-14T19:13:33.656Z,85.52
2019-02-14T19:16:03.288Z,85.47
2019-02-14T19:18:33.007Z,85.54
2019-02-14T19:21:02.810Z,85.41
2019-02-14T19:23:32.513Z,85.62
2019-02-14T19:26:02.446Z,85.54
2019-02-14T19:28:35.094Z,85.33
2019-02-14T19:31:11.097Z,85.33
2019-02-14T19:33:45.626Z,85.39
2019-02-14T19:40:17.354Z,85.52
2019-02-14T19:42:47.138Z,85.28
2019-02-14T19:49:05.744Z,85.29
2019-02-14T19:51:35.678Z,85.07
2019-02-14T19:54:06.467Z,84.77
2019-02-14T19:56:37.371Z,84.69
2019-02-14T19:59:07.105Z,84.92
2019-02-14T20:01:37.508Z,84.34
2019-02-14T20:04:07.314Z,84.12
2019-02-14T20:06:37.179Z,84.04
2019-02-14T20:09:07.177Z,83.81
2019-02-14T20:11:39.215Z,83.71
2019-02-14T20:14:09.262Z,83.81
2019-02-14T20:16:40.440Z,83.80
2019-02-14T20:19:13.411Z,83.82
2019-02-14T20:21:45.540Z,83.61
2019-02-14T20:24:15.635Z,83.74
2019-02-14T20:26:45.275Z,83.60
2019-02-14T20:29:15.041Z,83.72
2019-02-14T20:31:44.651Z,83.50
2019-02-14T20:34:17.389Z,83.54
2019-02-14T20:36:48.013Z,83.38
2019-02-14T20:39:17.641Z,83.48
2019-02-14T20:41:47.401Z,83.81
2019-02-14T20:44:17.139Z,83.88
2019-02-14T20:46:46.963Z,83.40
2019-02-14T20:49:17.123Z,83.03
2019-02-14T20:51:46.862Z,82.87
2019-02-14T20:54:16.501Z,82.96
2019-02-14T20:56:46.743Z,82.59
2019-02-14T20:59:17.804Z,82.56
2019-02-14T21:01:47.729Z,82.53
2019-02-14T21:04:22.149Z,82.56
2019-02-14T21:06:53.329Z,82.61
2019-02-14T21:09:23.030Z,82.47
2019-02-14T21:11:55.542Z,82.35
2019-02-14T21:14:25.260Z,82.24
2019-02-14T21:16:54.879Z,82.24
2019-02-14T21:19:26.515Z,82.15
2019-02-14T21:22:01.597Z,82.20
2019-02-14T21:24:30.429Z,82.30
2019-02-14T21:27:01.338Z,82.49
2019-02-14T21:29:31.029Z,82.62
2019-02-14T21:32:01.375Z,82.55
2019-02-14T21:34:32.233Z,82.77
2019-02-14T21:37:05.003Z,82.98
2019-02-14T21:39:34.725Z,82.82
2019-02-14T21:42:20.058Z,82.92
2019-02-14T21:44:40.211Z,82.93
2019-02-14T21:47:11.532Z,83.12
2019-02-14T21:49:41.194Z,83.50
2019-02-14T21:52:11.152Z,83.25
2019-02-14T21:54:40.791Z,83.56
2019-02-14T21:57:10.772Z,83.91
2019-02-14T21:59:42.507Z,83.86
2019-02-14T22:02:12.135Z,83.85
2019-02-14T22:04:41.829Z,83.76
2019-02-14T22:07:11.530Z,83.66
2019-02-14T22:09:41.763Z,83.86
2019-02-14T22:12:14.041Z,84.21
2019-02-14T22:14:44.938Z,84.42
2019-02-14T22:17:14.544Z,84.58
2019-02-14T22:19:44.168Z,84.67
2019-02-14T22:22:14.204Z,84.52
2019-02-14T22:24:45.504Z,84.71
2019-02-14T22:27:15.149Z,84.56
2019-02-14T22:29:45.108Z,84.67
2019-02-14T22:32:15.554Z,84.64
2019-02-14T22:34:45.193Z,84.69
2019-02-14T22:37:15.142Z,84.61
2019-02-14T22:39:45.432Z,84.76
2019-02-14T22:42:15.221Z,84.81
2019-02-14T22:44:44.916Z,84.88
2019-02-14T22:47:14.912Z,85.06
2019-02-14T22:49:44.546Z,85.18
2019-02-14T22:52:14.887Z,85.24
2019-02-14T22:54:44.682Z,85.37
2019-02-14T22:57:14.695Z,85.48
2019-02-14T22:59:45.198Z,85.65
2019-02-14T23:02:15.858Z,85.72
2019-02-14T23:04:45.615Z,85.51
2019-02-14T23:07:15.866Z,85.43
2019-02-14T23:09:45.494Z,85.46
2019-02-14T23:12:15.120Z,85.54
2019-02-14T23:14:45.371Z,85.46
2019-02-14T23:17:15.006Z,85.28
2019-02-14T23:19:44.632Z,85.23
2019-02-14T23:22:14.884Z,85.21
2019-02-14T23:24:44.520Z,85.24
2019-02-14T23:27:14.398Z,85.44
2019-02-14T23:29:44.384Z,85.64
2019-02-14T23:32:14.092Z,85.70
2019-02-14T23:34:43.716Z,85.98
2019-02-14T23:37:14.337Z,86.16
2019-02-14T23:39:43.970Z,86.13
2019-02-14T23:42:14.170Z,86.10
2019-02-14T23:44:43.981Z,86.06
2019-02-14T23:47:14.305Z,85.86
2019-02-14T23:49:45.109Z,85.84
2019-02-14T23:52:15.153Z,85.38
2019-02-14T23:54:45.165Z,84.87
2019-02-14T23:57:14.793Z,84.72
2019-02-14T23:59:44.489Z,84.91
